createdAt,value
2022-11-01T00:00:18.636Z,100469.13671875
2022-11-01T00:01:18.802Z,100472.41015625
2022-11-01T00:02:19.142Z,100471.0859375
2022-11-01T00:03:18.699Z,100470.48046875
2022-11-01T00:04:18.713Z,100467.83984375
2022-11-01T00:05:21.707Z,100468.38671875
2022-11-01T00:06:18.757Z,100465.68359375
2022-11-01T00:07:19.049Z,100465.3984375
2022-11-01T00:08:18.722Z,100466.11328125
2022-11-01T00:09:18.729Z,100469.5234375
2022-11-01T00:10:18.664Z,100463.29296875
2022-11-01T00:11:18.809Z,100461.30078125
2022-11-01T00:12:19.052Z,100461.03125
2022-11-01T00:13:18.696Z,100461.8046875
2022-11-01T00:14:19.202Z,100458.31640625
2022-11-01T00:15:18.700Z,100458.23828125
2022-11-01T00:16:18.619Z,100461.28515625
2022-11-01T00:17:19.118Z,100467.19921875
2022-11-01T00:18:18.830Z,100470.0859375
2022-11-01T00:19:18.702Z,100472.66015625
2022-11-01T00:20:18.739Z,100476.34765625
2022-11-01T00:21:21.723Z,100474.47265625
2022-11-01T00:22:19.022Z,100471.68359375
2022-11-01T00:23:18.688Z,100474.76171875
2022-11-01T00:24:18.739Z,100473.94140625
2022-11-01T00:25:18.753Z,100472.609375
2022-11-01T00:26:18.634Z,100471.578125
2022-11-01T00:27:18.968Z,100472.18359375
2022-11-01T00:28:18.767Z,100468.76953125
2022-11-01T00:29:19.039Z,100473.54296875
2022-11-01T00:30:18.714Z,100473.078125
2022-11-01T00:31:18.748Z,100472.3828125
2022-11-01T00:32:24.724Z,100475.875
2022-11-01T00:33:18.719Z,100472.8671875
2022-11-01T00:34:18.744Z,100470.9375
2022-11-01T00:35:18.682Z,100468.3828125
2022-11-01T00:36:18.719Z,100466.38671875
2022-11-01T00:37:19.554Z,100471.83984375
2022-11-01T00:38:18.709Z,100470.3828125
2022-11-01T00:39:18.627Z,100468.07421875
2022-11-01T00:40:18.739Z,100469.31640625
2022-11-01T00:41:18.670Z,100471.91796875
2022-11-01T00:42:19.042Z,100475.34765625
2022-11-01T00:43:21.639Z,100477.4140625
2022-11-01T00:44:18.983Z,100474.91796875
2022-11-01T00:45:18.830Z,100476.078125
2022-11-01T00:46:18.816Z,100476.0625
2022-11-01T00:47:18.967Z,100474.00390625
2022-11-01T00:48:18.813Z,100471.5703125
2022-11-01T00:49:18.719Z,100474.078125
2022-11-01T00:50:18.702Z,100472.53515625
2022-11-01T00:51:18.759Z,100471.640625
2022-11-01T00:52:18.966Z,100470.09375
2022-11-01T00:53:18.754Z,100466.96875
2022-11-01T00:54:21.722Z,100472.359375
2022-11-01T00:55:18.724Z,100472.6875
2022-11-01T00:56:18.606Z,100469.3046875
2022-11-01T00:57:19.044Z,100473.8046875
2022-11-01T00:58:18.727Z,100474.60546875
2022-11-01T00:59:19.062Z,100474.75390625
2022-11-01T01:00:18.596Z,100475.359375
2022-11-01T01:01:18.819Z,100474.02734375
2022-11-01T01:02:19.172Z,100475.6171875
2022-11-01T01:03:18.609Z,100471.3125
2022-11-01T01:04:18.718Z,100473.6015625
2022-11-01T01:05:21.742Z,100472.953125
2022-11-01T01:06:18.678Z,100465.0625
2022-11-01T01:07:19.053Z,100468.94140625
2022-11-01T01:08:18.831Z,100462.76171875
2022-11-01T01:09:18.835Z,100460.765625
2022-11-01T01:10:18.664Z,100464.90625
2022-11-01T01:11:18.685Z,100463.36328125
2022-11-01T01:12:19.063Z,100464.87109375
2022-11-01T01:13:18.719Z,100459.58203125
2022-11-01T01:14:19.055Z,100459.79296875
2022-11-01T01:15:18.820Z,100453.5078125
2022-11-01T01:16:21.703Z,100448.61328125
2022-11-01T01:17:19.046Z,100448.7890625
2022-11-01T01:18:18.829Z,100444.84765625
2022-11-01T01:19:18.786Z,100447.09765625
2022-11-01T01:20:18.595Z,100447.31640625
2022-11-01T01:21:18.628Z,100437.26171875
2022-11-01T01:22:18.981Z,100435.9296875
2022-11-01T01:23:18.613Z,100434.43359375
2022-11-01T01:24:18.748Z,100431.14453125
2022-11-01T01:25:18.735Z,100428.5625
2022-11-01T01:26:18.699Z,100422.4609375
2022-11-01T01:27:24.668Z,100421.59375
2022-11-01T01:28:18.792Z,100415.50390625
2022-11-01T01:29:19.062Z,100418.2109375
2022-11-01T01:30:18.825Z,100419.95703125
2022-11-01T01:31:18.777Z,100417.9765625
2022-11-01T01:32:19.043Z,100422.82421875
2022-11-01T01:33:18.637Z,100421.21484375
2022-11-01T01:34:18.688Z,100425.1171875
2022-11-01T01:35:18.637Z,100433.1484375
2022-11-01T01:36:18.631Z,100433.3671875
2022-11-01T01:37:18.973Z,100429.74609375
2022-11-01T01:38:21.716Z,100423.15625
2022-11-01T01:39:18.846Z,100422.33203125
2022-11-01T01:40:18.616Z,100424.0390625
2022-11-01T01:41:18.693Z,100422.09765625
2022-11-01T01:42:19.045Z,100419.94921875
2022-11-01T01:43:18.693Z,100421.12890625
2022-11-01T01:44:18.989Z,100421.40625
2022-11-01T01:45:18.603Z,100411.890625
2022-11-01T01:46:18.716Z,100414.5
2022-11-01T01:47:19.051Z,100416.9453125
2022-11-01T01:48:18.801Z,100418.80859375
2022-11-01T01:49:21.655Z,100422.26171875
2022-11-01T01:50:18.787Z,100417.1171875
2022-11-01T01:51:18.641Z,100420.0234375
2022-11-01T01:52:19.073Z,100419.69921875
2022-11-01T01:53:18.793Z,100423.85546875
2022-11-01T01:54:18.723Z,100426.89453125
2022-11-01T01:55:18.621Z,100425.30859375
2022-11-01T01:56:18.685Z,100427.34375
2022-11-01T01:57:19.065Z,100427.65625
2022-11-01T01:58:18.606Z,100428.26953125
2022-11-01T01:59:19.057Z,100430.52734375
2022-11-01T02:00:21.665Z,100424.72265625
2022-11-01T02:01:18.867Z,100424.265625
2022-11-01T02:02:19.122Z,100423.76953125
2022-11-01T02:03:18.708Z,100422.92578125
2022-11-01T02:04:18.623Z,100420.42578125
2022-11-01T02:05:18.711Z,100417.6015625
2022-11-01T02:06:18.657Z,100418.14453125
2022-11-01T02:07:19.053Z,100418.13671875
2022-11-01T02:08:18.697Z,100418.9296875
2022-11-01T02:09:18.609Z,100417.36328125
2022-11-01T02:10:18.782Z,100415.66015625
2022-11-01T02:11:21.864Z,100414.61328125
2022-11-01T02:12:18.975Z,100412.6796875
2022-11-01T02:13:18.605Z,100410.86328125
2022-11-01T02:14:19.047Z,100414.765625
2022-11-01T02:15:18.775Z,100414.90625
2022-11-01T02:16:18.776Z,100415.984375
2022-11-01T02:17:18.980Z,100416.796875
2022-11-01T02:18:18.597Z,100417.99609375
2022-11-01T02:19:18.711Z,100412.4296875
2022-11-01T02:20:18.639Z,100409.28515625
2022-11-01T02:21:18.740Z,100411.26171875
2022-11-01T02:22:24.705Z,100412.9609375
2022-11-01T02:23:18.831Z,100408.55078125
2022-11-01T02:24:18.724Z,100406.296875
2022-11-01T02:25:18.602Z,100410.953125
2022-11-01T02:26:18.615Z,100410.01171875
2022-11-01T02:27:19.041Z,100406.5859375
2022-11-01T02:28:18.709Z,100408.453125
2022-11-01T02:29:19.071Z,100413.3359375
2022-11-01T02:30:18.682Z,100410.76171875
2022-11-01T02:31:18.623Z,100401.72265625
2022-11-01T02:32:19.045Z,100404.87109375
2022-11-01T02:33:21.615Z,100408.828125
2022-11-01T02:34:18.681Z,100407.109375
2022-11-01T02:35:18.758Z,100406.9375
2022-11-01T02:36:18.829Z,100407.02734375
2022-11-01T02:37:19.043Z,100407.640625
2022-11-01T02:38:18.753Z,100410.75390625
2022-11-01T02:39:18.740Z,100410.2578125
2022-11-01T02:40:18.622Z,100413.8203125
2022-11-01T02:41:18.762Z,100407.05078125
2022-11-01T02:42:18.976Z,100408.25390625
2022-11-01T02:43:18.731Z,100408.7109375
2022-11-01T02:44:22.025Z,100406.12109375
2022-11-01T02:45:18.715Z,100404.51953125
2022-11-01T02:46:18.718Z,100403.4453125
2022-11-01T02:47:18.967Z,100403.953125
2022-11-01T02:48:18.803Z,100403.8984375
2022-11-01T02:49:18.611Z,100405.42578125
2022-11-01T02:50:18.623Z,100410.44140625
2022-11-01T02:51:18.726Z,100406.6015625
2022-11-01T02:52:18.972Z,100412.66796875
2022-11-01T02:53:18.619Z,100406.484375
2022-11-01T02:54:18.721Z,100406.99609375
2022-11-01T02:55:21.713Z,100405.734375
2022-11-01T02:56:18.718Z,100404.22265625
2022-11-01T02:57:19.047Z,100404.74609375
2022-11-01T02:58:18.776Z,100409.625
2022-11-01T02:59:19.047Z,100404.58203125
2022-11-01T03:00:18.814Z,100409.234375
2022-11-01T03:01:18.822Z,100410.16015625
2022-11-01T03:02:19.168Z,100409.25
2022-11-01T03:03:18.627Z,100414.08984375
2022-11-01T03:04:18.739Z,100409.80859375
2022-11-01T03:05:18.806Z,100413.703125
2022-11-01T03:06:21.617Z,100408.21484375
2022-11-01T03:07:19.180Z,100405.63671875
2022-11-01T03:08:18.794Z,100406.1015625
2022-11-01T03:09:18.626Z,100404.22265625
2022-11-01T03:10:18.781Z,100402.81640625
2022-11-01T03:11:18.681Z,100404.66796875
2022-11-01T03:12:19.074Z,100398.265625
2022-11-01T03:13:18.639Z,100402.81640625
2022-11-01T03:14:19.083Z,100407.03515625
2022-11-01T03:15:18.758Z,100412.0703125
2022-11-01T03:16:18.609Z,100408.328125
2022-11-01T03:17:24.668Z,100417.265625
2022-11-01T03:18:18.804Z,100420.80078125
2022-11-01T03:19:18.710Z,100420.50390625
2022-11-01T03:20:18.618Z,100424.68359375
2022-11-01T03:21:18.697Z,100421.65625
2022-11-01T03:22:19.059Z,100427.9296875
2022-11-01T03:23:18.632Z,100427.73828125
2022-11-01T03:24:18.636Z,100429.09375
2022-11-01T03:25:18.609Z,100436.7421875
2022-11-01T03:26:18.621Z,100441.6796875
2022-11-01T03:27:19.155Z,100438.28125
2022-11-01T03:28:21.638Z,100445.30078125
2022-11-01T03:29:18.992Z,100448.86328125
2022-11-01T03:30:18.787Z,100446.265625
2022-11-01T03:31:18.752Z,100443.5
2022-11-01T03:32:19.079Z,100446.42578125
2022-11-01T03:33:18.723Z,100444.921875
2022-11-01T03:34:18.719Z,100443.37890625
2022-11-01T03:35:18.614Z,100444.59375
2022-11-01T03:36:18.616Z,100448.3984375
2022-11-01T03:37:19.058Z,100448.45703125
2022-11-01T03:38:18.810Z,100458.13671875
2022-11-01T03:39:21.759Z,100454.2265625
2022-11-01T03:40:18.682Z,100454.51171875
2022-11-01T03:41:18.603Z,100456.6796875
2022-11-01T03:42:18.976Z,100451.109375
2022-11-01T03:43:18.704Z,100455.25390625
2022-11-01T03:44:19.047Z,100453.80078125
2022-11-01T03:45:18.693Z,100452.72265625
2022-11-01T03:46:18.707Z,100454.87890625
2022-11-01T03:47:19.048Z,100457.8359375
2022-11-01T03:48:18.806Z,100466.3515625
2022-11-01T03:49:18.617Z,100459.30078125
2022-11-01T03:50:21.734Z,100458.86328125
2022-11-01T03:51:18.799Z,100460.78515625
2022-11-01T03:52:19.216Z,100460.87890625
2022-11-01T03:53:18.756Z,100463.046875
2022-11-01T03:54:18.762Z,100462.56640625
2022-11-01T03:55:18.700Z,100458.53515625
2022-11-01T03:56:18.733Z,100461.2578125
2022-11-01T03:57:19.082Z,100464.3203125
2022-11-01T03:58:18.800Z,100469.1953125
2022-11-01T03:59:18.999Z,100468.9375
2022-11-01T04:00:18.753Z,100472.51953125
2022-11-01T04:01:21.822Z,100465.55078125
2022-11-01T04:02:20.305Z,100463.72265625
2022-11-01T04:03:18.703Z,100463.3046875
2022-11-01T04:04:18.724Z,100465.08984375
2022-11-01T04:05:18.616Z,100468.625
2022-11-01T04:06:18.605Z,100468.05859375
2022-11-01T04:07:18.977Z,100466.09765625
2022-11-01T04:08:18.622Z,100467.0703125
2022-11-01T04:09:18.704Z,100469.59765625
2022-11-01T04:10:18.750Z,100473.66796875
2022-11-01T04:11:18.670Z,100477.22265625
2022-11-01T04:12:24.703Z,100480.671875
2022-11-01T04:13:18.757Z,100478.8828125
2022-11-01T04:14:18.972Z,100477.73828125
2022-11-01T04:15:18.776Z,100474.6484375
2022-11-01T04:16:18.728Z,100478.953125
2022-11-01T04:17:19.050Z,100480.57421875
2022-11-01T04:18:18.703Z,100475.98046875
2022-11-01T04:19:18.623Z,100476.29296875
2022-11-01T04:20:18.699Z,100482.6796875
2022-11-01T04:21:18.790Z,100480.796875
2022-11-01T04:22:22.045Z,100479.19140625
2022-11-01T04:23:21.604Z,100478.37109375
2022-11-01T04:24:18.727Z,100482.03515625
2022-11-01T04:25:18.729Z,100481.62109375
2022-11-01T04:26:18.699Z,100479.30859375
2022-11-01T04:27:19.026Z,100480.74609375
2022-11-01T04:28:18.825Z,100487.1953125
2022-11-01T04:29:18.982Z,100486.16796875
2022-11-01T04:30:18.658Z,100489.40234375
2022-11-01T04:31:18.754Z,100486.92578125
2022-11-01T04:32:18.971Z,100491.8828125
2022-11-01T04:33:18.696Z,100497.8671875
2022-11-01T04:34:21.681Z,100501.48828125
2022-11-01T04:35:18.683Z,100504.9375
2022-11-01T04:36:18.614Z,100503.45703125
2022-11-01T04:37:19.057Z,100497.078125
2022-11-01T04:38:18.748Z,100495.265625
2022-11-01T04:39:18.630Z,100492.390625
2022-11-01T04:40:18.605Z,100492.94921875
2022-11-01T04:41:18.710Z,100490.3984375
2022-11-01T04:42:19.051Z,100492.55078125
2022-11-01T04:43:18.727Z,100496.23828125
2022-11-01T04:44:19.066Z,100500.10546875
2022-11-01T04:45:21.795Z,100498.1796875
2022-11-01T04:46:18.698Z,100494.98828125
2022-11-01T04:47:19.101Z,100495.0078125
2022-11-01T04:48:18.829Z,100493.5859375
2022-11-01T04:49:18.701Z,100491.29296875
2022-11-01T04:50:18.711Z,100493.4375
2022-11-01T04:51:18.721Z,100492.5625
2022-11-01T04:52:18.970Z,100490.72265625
2022-11-01T04:53:18.622Z,100491.30078125
2022-11-01T04:54:18.720Z,100492.50390625
2022-11-01T04:55:18.715Z,100493.90625
2022-11-01T04:56:21.685Z,100491.05078125
2022-11-01T04:57:19.019Z,100494.484375
2022-11-01T04:58:18.827Z,100496.125
2022-11-01T04:59:19.024Z,100504.39453125
2022-11-01T05:00:18.784Z,100503.41015625
2022-11-01T05:01:19.034Z,100503.98828125
2022-11-01T05:02:19.161Z,100500.84375
2022-11-01T05:03:18.627Z,100505.1171875
2022-11-01T05:04:18.772Z,100504.9375
2022-11-01T05:05:18.695Z,100506.71875
2022-11-01T05:06:18.623Z,100507.9765625
2022-11-01T05:07:24.684Z,100507.3828125
2022-11-01T05:08:18.745Z,100505.2734375
2022-11-01T05:09:18.631Z,100506.46875
2022-11-01T05:10:18.745Z,100508.4609375
2022-11-01T05:11:18.719Z,100510.35546875
2022-11-01T05:12:19.094Z,100510.33984375
2022-11-01T05:13:18.717Z,100512.765625
2022-11-01T05:14:18.715Z,100510.59765625
2022-11-01T05:15:18.723Z,100512.4140625
2022-11-01T05:16:20.136Z,100506.01953125
2022-11-01T05:17:19.102Z,100502.796875
2022-11-01T05:18:21.742Z,100507.1953125
2022-11-01T05:19:18.708Z,100513.99609375
2022-11-01T05:20:18.630Z,100513.4765625
2022-11-01T05:21:18.717Z,100504.75
2022-11-01T05:22:18.720Z,100508.28125
2022-11-01T05:23:18.735Z,100504.0703125
2022-11-01T05:24:18.711Z,100512.4140625
2022-11-01T05:25:18.620Z,100515.5390625
2022-11-01T05:26:18.627Z,100519.26953125
2022-11-01T05:27:18.635Z,100516.9375
2022-11-01T05:28:18.622Z,100521.0390625
2022-11-01T05:29:32.664Z,100526.74609375
2022-11-01T05:30:18.700Z,100524.7578125
2022-11-01T05:31:18.600Z,100523.69140625
2022-11-01T05:32:19.059Z,100522.3671875
2022-11-01T05:33:18.703Z,100525.9296875
2022-11-01T05:34:18.619Z,100527.83203125
2022-11-01T05:35:18.618Z,100534.84375
2022-11-01T05:36:18.624Z,100537.48046875
2022-11-01T05:37:18.597Z,100528.17578125
2022-11-01T05:38:18.735Z,100522.23046875
2022-11-01T05:39:18.787Z,100531.859375
2022-11-01T05:40:21.725Z,100533.59765625
2022-11-01T05:41:18.675Z,100540.1640625
2022-11-01T05:42:19.046Z,100536.33984375
2022-11-01T05:43:18.732Z,100544.02734375
2022-11-01T05:44:18.726Z,100540.73828125
2022-11-01T05:45:18.601Z,100545.453125
2022-11-01T05:46:18.711Z,100552.734375
2022-11-01T05:47:19.053Z,100550.65625
2022-11-01T05:48:18.704Z,100552.91796875
2022-11-01T05:49:18.753Z,100546.16015625
2022-11-01T05:50:18.696Z,100548.3203125
2022-11-01T05:51:21.622Z,100545.26171875
2022-11-01T05:52:18.982Z,100548.828125
2022-11-01T05:53:18.715Z,100546.94140625
2022-11-01T05:54:18.760Z,100545.6796875
2022-11-01T05:55:18.722Z,100542.609375
2022-11-01T05:56:18.744Z,100547.10546875
2022-11-01T05:57:19.022Z,100555.6640625
2022-11-01T05:58:18.759Z,100552.01953125
2022-11-01T05:59:18.978Z,100554.43359375
2022-11-01T06:00:18.814Z,100564.03515625
2022-11-01T06:01:18.847Z,100563.84375
2022-11-01T06:02:24.762Z,100553.625
2022-11-01T06:03:18.726Z,100558.4375
2022-11-01T06:04:18.623Z,100554.87890625
2022-11-01T06:05:18.674Z,100556.5
2022-11-01T06:06:18.614Z,100558.58203125
2022-11-01T06:07:18.721Z,100552.8125
2022-11-01T06:08:18.748Z,100548.08203125
2022-11-01T06:09:18.634Z,100545.0546875
2022-11-01T06:10:18.730Z,100540.3359375
2022-11-01T06:11:18.763Z,100552.44140625
2022-11-01T06:12:19.836Z,100553.16015625
2022-11-01T06:13:21.684Z,100559.80078125
2022-11-01T06:14:18.984Z,100563.109375
2022-11-01T06:15:18.755Z,100572.4453125
2022-11-01T06:16:18.741Z,100577.10546875
2022-11-01T06:17:18.998Z,100577.765625
2022-11-01T06:18:18.727Z,100576.05859375
2022-11-01T06:19:18.749Z,100575.640625
2022-11-01T06:20:18.709Z,100580.5859375
2022-11-01T06:21:18.625Z,100577.2265625
2022-11-01T06:22:19.049Z,100574.41015625
2022-11-01T06:23:18.828Z,100575.37109375
2022-11-01T06:24:21.727Z,100580.84375
2022-11-01T06:25:18.726Z,100583.79296875
2022-11-01T06:26:18.629Z,100587.640625
2022-11-01T06:27:19.051Z,100583.28125
2022-11-01T06:28:18.703Z,100586.265625
2022-11-01T06:29:19.069Z,100586.140625
2022-11-01T06:30:18.766Z,100583.1328125
2022-11-01T06:31:18.613Z,100578.27734375
2022-11-01T06:32:19.043Z,100582.0078125
2022-11-01T06:33:18.750Z,100582.27734375
2022-11-01T06:34:18.585Z,100579.65625
2022-11-01T06:35:21.774Z,100579.6875
2022-11-01T06:36:18.751Z,100582.0546875
2022-11-01T06:37:19.050Z,100581.2578125
2022-11-01T06:38:18.745Z,100586.62890625
2022-11-01T06:39:18.735Z,100587.04296875
2022-11-01T06:40:18.687Z,100586.40234375
2022-11-01T06:41:18.593Z,100585.6640625
2022-11-01T06:42:19.101Z,100589.671875
2022-11-01T06:43:18.721Z,100589.20703125
2022-11-01T06:44:19.041Z,100585.265625
2022-11-01T06:45:18.793Z,100589.625
2022-11-01T06:46:21.727Z,100590.8671875
2022-11-01T06:47:18.982Z,100584.296875
2022-11-01T06:48:18.680Z,100584.74609375
2022-11-01T06:49:19.351Z,100588.5859375
2022-11-01T06:50:18.717Z,100584.30859375
2022-11-01T06:51:18.599Z,100588.48046875
2022-11-01T06:52:18.974Z,100585.69140625
2022-11-01T06:53:18.625Z,100586.828125
2022-11-01T06:54:18.686Z,100593.5859375
2022-11-01T06:55:18.768Z,100597.33203125
2022-11-01T06:56:18.623Z,100600.00390625
2022-11-01T06:57:24.663Z,100599.33203125
2022-11-01T06:58:18.773Z,100602.87890625
2022-11-01T06:59:18.983Z,100602.3671875
2022-11-01T07:00:18.703Z,100608.19140625
2022-11-01T07:01:18.787Z,100611.44140625
2022-11-01T07:02:19.953Z,100611.3828125
2022-11-01T07:03:18.756Z,100612.50390625
2022-11-01T07:04:18.611Z,100617.24609375
2022-11-01T07:05:18.682Z,100619.296875
2022-11-01T07:06:18.719Z,100619.79296875
2022-11-01T07:07:18.974Z,100623.32421875
2022-11-01T07:08:21.672Z,100619.453125
2022-11-01T07:09:18.784Z,100619.390625
2022-11-01T07:10:18.627Z,100624.12109375
2022-11-01T07:11:18.587Z,100624.64453125
2022-11-01T07:12:18.984Z,100625.77734375
2022-11-01T07:13:18.621Z,100625.671875
2022-11-01T07:14:18.978Z,100628.203125
2022-11-01T07:15:18.710Z,100623.953125
2022-11-01T07:16:18.611Z,100625.7265625
2022-11-01T07:17:19.050Z,100630.05078125
2022-11-01T07:18:18.781Z,100632.3984375
2022-11-01T07:19:21.672Z,100636.7265625
2022-11-01T07:20:18.788Z,100638.08984375
2022-11-01T07:21:18.719Z,100640.35546875
2022-11-01T07:22:18.977Z,100643.13671875
2022-11-01T07:23:18.764Z,100641.7890625
2022-11-01T07:24:18.709Z,100645.94140625
2022-11-01T07:25:18.722Z,100647.3359375
2022-11-01T07:26:18.732Z,100648.33203125
2022-11-01T07:27:20.569Z,100652.76953125
2022-11-01T07:28:18.709Z,100651.4296875
2022-11-01T07:29:19.075Z,100653.28125
2022-11-01T07:30:21.831Z,100652.4609375
2022-11-01T07:31:20.396Z,100650.4609375
2022-11-01T07:32:19.111Z,100650.390625
2022-11-01T07:33:18.709Z,100652.8515625
2022-11-01T07:34:18.721Z,100653.59375
2022-11-01T07:35:18.808Z,100654.296875
2022-11-01T07:36:18.752Z,100661.59765625
2022-11-01T07:37:19.218Z,100659.44140625
2022-11-01T07:38:19.152Z,100660.4375
2022-11-01T07:39:18.608Z,100658.26953125
2022-11-01T07:40:18.743Z,100658.86328125
2022-11-01T07:41:21.811Z,100661.56640625
2022-11-01T07:42:18.982Z,100657.890625
2022-11-01T07:43:18.773Z,100659.109375
2022-11-01T07:44:19.049Z,100657.140625
2022-11-01T07:45:18.825Z,100661.52734375
2022-11-01T07:46:18.824Z,100656.41796875
2022-11-01T07:47:18.986Z,100655.671875
2022-11-01T07:48:18.598Z,100657.21484375
2022-11-01T07:49:18.728Z,100658.734375
2022-11-01T07:50:18.790Z,100661.1640625
2022-11-01T07:51:18.740Z,100665.859375
2022-11-01T07:52:22.057Z,100664.04296875
2022-11-01T07:53:18.814Z,100660.94921875
2022-11-01T07:54:18.810Z,100670.20703125
2022-11-01T07:55:18.705Z,100671.515625
2022-11-01T07:56:18.608Z,100672.66015625
2022-11-01T07:57:19.047Z,100674.0703125
2022-11-01T07:58:18.636Z,100678.28515625
2022-11-01T07:59:19.048Z,100683.65625
2022-11-01T08:00:18.778Z,100684.6484375
2022-11-01T08:01:18.758Z,100681.3359375
2022-11-01T08:02:19.204Z,100681.671875
2022-11-01T08:03:21.657Z,100685.328125
2022-11-01T08:04:18.790Z,100684.25390625
2022-11-01T08:05:18.738Z,100686.484375
2022-11-01T08:06:18.850Z,100686.03515625
2022-11-01T08:07:18.973Z,100685.6953125
2022-11-01T08:08:18.804Z,100684.22265625
2022-11-01T08:09:18.707Z,100681.03515625
2022-11-01T08:10:18.642Z,100684.4453125
2022-11-01T08:11:18.764Z,100685.203125
2022-11-01T08:12:18.982Z,100691.05078125
2022-11-01T08:13:18.783Z,100690.57421875
2022-11-01T08:14:24.664Z,100688.49609375
2022-11-01T08:15:18.712Z,100687.1171875
2022-11-01T08:16:18.654Z,100689.36328125
2022-11-01T08:17:19.056Z,100686.65234375
2022-11-01T08:18:18.710Z,100687.46875
2022-11-01T08:19:18.742Z,100686.9453125
2022-11-01T08:20:18.626Z,100691.578125
2022-11-01T08:21:18.909Z,100694.7421875
2022-11-01T08:22:19.040Z,100702.19140625
2022-11-01T08:23:18.755Z,100700.22265625
2022-11-01T08:24:18.675Z,100699.68359375
2022-11-01T08:25:21.756Z,100697.125
2022-11-01T08:26:18.832Z,100702.8046875
2022-11-01T08:27:19.042Z,100702.36328125
2022-11-01T08:28:18.709Z,100701.48828125
2022-11-01T08:29:19.128Z,100700.265625
2022-11-01T08:30:18.756Z,100700.33984375
2022-11-01T08:31:18.687Z,100696.36328125
2022-11-01T08:32:19.052Z,100698.4765625
2022-11-01T08:33:18.796Z,100700.65625
2022-11-01T08:34:18.720Z,100701.734375
2022-11-01T08:35:18.631Z,100701.76953125
2022-11-01T08:36:21.746Z,100699.359375
2022-11-01T08:37:18.973Z,100699.3515625
2022-11-01T08:38:18.805Z,100701.0546875
2022-11-01T08:39:18.707Z,100700.11328125
2022-11-01T08:40:18.737Z,100702.38671875
2022-11-01T08:41:18.599Z,100705.8046875
2022-11-01T08:42:18.975Z,100705.12109375
2022-11-01T08:43:18.635Z,100707.82421875
2022-11-01T08:44:19.053Z,100714.87109375
2022-11-01T08:45:18.684Z,100715.46875
2022-11-01T08:46:18.629Z,100712.72265625
2022-11-01T08:47:24.693Z,100715.4921875
2022-11-01T08:48:18.785Z,100711.43359375
2022-11-01T08:49:18.743Z,100714.18359375
2022-11-01T08:50:18.726Z,100720.1484375
2022-11-01T08:51:18.700Z,100721.140625
2022-11-01T08:52:19.048Z,100719.23046875
2022-11-01T08:53:18.737Z,100721.9609375
2022-11-01T08:54:18.639Z,100722.16796875
2022-11-01T08:55:18.612Z,100725.265625
2022-11-01T08:56:18.613Z,100724.59765625
2022-11-01T08:57:18.975Z,100720.94921875
2022-11-01T08:58:21.654Z,100718.91796875
2022-11-01T08:59:19.031Z,100719.39453125
2022-11-01T09:00:18.800Z,100724.046875
2022-11-01T09:01:18.963Z,100722.515625
2022-11-01T09:02:19.113Z,100727.6484375
2022-11-01T09:03:18.794Z,100726.90234375
2022-11-01T09:04:18.737Z,100726.2734375
2022-11-01T09:05:18.723Z,100729.3046875
2022-11-01T09:06:18.686Z,100728.375
2022-11-01T09:07:19.150Z,100730.5546875
2022-11-01T09:08:18.761Z,100730.8515625
2022-11-01T09:09:21.654Z,100726.390625
2022-11-01T09:10:18.703Z,100728.171875
2022-11-01T09:11:18.614Z,100730.30859375
2022-11-01T09:12:24.265Z,100730.83203125
2022-11-01T09:13:18.785Z,100731.08203125
2022-11-01T09:14:18.975Z,100736.109375
2022-11-01T09:15:18.735Z,100729.86328125
2022-11-01T09:16:18.700Z,100733.3359375
2022-11-01T09:17:18.994Z,100728.921875
2022-11-01T09:18:18.714Z,100737.453125
2022-11-01T09:19:18.616Z,100743.26953125
2022-11-01T09:20:21.663Z,100742.5
2022-11-01T09:21:18.783Z,100740.33203125
2022-11-01T09:22:18.992Z,100744.69140625
2022-11-01T09:23:18.784Z,100747.859375
2022-11-01T09:24:18.741Z,100746.8359375
2022-11-01T09:25:18.709Z,100754.51953125
2022-11-01T09:26:18.626Z,100747.84765625
2022-11-01T09:27:19.101Z,100747.5625
2022-11-01T09:28:18.709Z,100753.953125
2022-11-01T09:29:19.065Z,100751.03125
2022-11-01T09:30:18.698Z,100745.26171875
2022-11-01T09:31:21.992Z,100743.01953125
2022-11-01T09:32:18.977Z,100745.55078125
2022-11-01T09:33:18.724Z,100747.1953125
2022-11-01T09:34:18.679Z,100748.2109375
2022-11-01T09:35:18.814Z,100747.890625
2022-11-01T09:36:18.788Z,100748.8203125
2022-11-01T09:37:18.972Z,100751.06640625
2022-11-01T09:38:18.622Z,100753
2022-11-01T09:39:18.743Z,100756.33203125
2022-11-01T09:40:18.699Z,100755.21875
2022-11-01T09:41:18.698Z,100758.80078125
2022-11-01T09:42:24.680Z,100755.171875
2022-11-01T09:43:18.791Z,100757.0234375
2022-11-01T09:44:18.981Z,100757.54296875
2022-11-01T09:45:18.733Z,100758.74609375
2022-11-01T09:46:18.655Z,100759.22265625
2022-11-01T09:47:19.049Z,100757.47265625
2022-11-01T09:48:18.621Z,100764.6328125
2022-11-01T09:49:18.629Z,100766.21875
2022-11-01T09:50:18.609Z,100769.21875
2022-11-01T09:51:18.701Z,100767.73828125
2022-11-01T09:52:19.062Z,100770.2109375
2022-11-01T09:53:21.626Z,100770.859375
2022-11-01T09:54:18.721Z,100763.9375
2022-11-01T09:55:18.739Z,100765.15234375
2022-11-01T09:56:18.710Z,100771.32421875
2022-11-01T09:57:19.060Z,100773.5625
2022-11-01T09:58:18.782Z,100773.98828125